sensor_id;sensor_type;location;lat;lon;timestamp;P1;durP1;ratioP1;P2;durP2;ratioP2
5951;SDS011;3001;42.622;23.194;2023-02-15T00:00:54;34.33;;;19.10;;
5951;SDS011;3001;42.622;23.194;2023-02-15T00:03:20;33.57;;;20.50;;
5951;SDS011;3001;42.622;23.194;2023-02-15T00:05:47;37.13;;;19.53;;
5951;SDS011;3001;42.622;23.194;2023-02-15T00:08:14;38.30;;;18.63;;
5951;SDS011;3001;42.622;23.194;2023-02-15T00:10:40;36.37;;;18.97;;
5951;SDS011;3001;42.622;23.194;2023-02-15T00:13:07;30.87;;;18.23;;
5951;SDS011;3001;42.622;23.194;2023-02-15T00:15:34;37.17;;;19.80;;
5951;SDS011;3001;42.622;23.194;2023-02-15T00:18:02;33.60;;;18.83;;
5951;SDS011;3001;42.622;23.194;2023-02-15T00:20:28;35.70;;;19.37;;
5951;SDS011;3001;42.622;23.194;2023-02-15T00:22:55;33.63;;;19.07;;
5951;SDS011;3001;42.622;23.194;2023-02-15T00:25:22;33.13;;;18.73;;
5951;SDS011;3001;42.622;23.194;2023-02-15T00:27:48;34.37;;;18.83;;
5951;SDS011;3001;42.622;23.194;2023-02-15T00:30:16;36.43;;;18.30;;
5951;SDS011;3001;42.622;23.194;2023-02-15T00:32:42;40.77;;;19.10;;
5951;SDS011;3001;42.622;23.194;2023-02-15T00:35:10;38.33;;;18.43;;
5951;SDS011;3001;42.622;23.194;2023-02-15T00:37:37;30.90;;;17.50;;
5951;SDS011;3001;42.622;23.194;2023-02-15T00:40:04;37.50;;;19.57;;
5951;SDS011;3001;42.622;23.194;2023-02-15T00:42:32;36.97;;;19.10;;
5951;SDS011;3001;42.622;23.194;2023-02-15T00:44:58;37.47;;;19.03;;
5951;SDS011;3001;42.622;23.194;2023-02-15T00:47:25;31.03;;;17.67;;
5951;SDS011;3001;42.622;23.194;2023-02-15T00:49:52;33.73;;;19.20;;
5951;SDS011;3001;42.622;23.194;2023-02-15T00:52:20;36.93;;;18.80;;
5951;SDS011;3001;42.622;23.194;2023-02-15T00:54:46;32.00;;;17.90;;
5951;SDS011;3001;42.622;23.194;2023-02-15T00:57:13;34.77;;;18.47;;
5951;SDS011;3001;42.622;23.194;2023-02-15T00:59:40;33.37;;;17.37;;
5951;SDS011;3001;42.622;23.194;2023-02-15T01:02:06;33.57;;;17.77;;
5951;SDS011;3001;42.622;23.194;2023-02-15T01:04:33;38.07;;;17.80;;
5951;SDS011;3001;42.622;23.194;2023-02-15T01:07:00;35.67;;;18.20;;
5951;SDS011;3001;42.622;23.194;2023-02-15T01:09:28;33.97;;;18.50;;
5951;SDS011;3001;42.622;23.194;2023-02-15T01:11:55;32.27;;;18.40;;
5951;SDS011;3001;42.622;23.194;2023-02-15T01:14:21;31.53;;;17.63;;
5951;SDS011;3001;42.622;23.194;2023-02-15T01:16:48;33.50;;;18.77;;
5951;SDS011;3001;42.622;23.194;2023-02-15T01:19:15;32.27;;;19.20;;
5951;SDS011;3001;42.622;23.194;2023-02-15T01:21:42;32.03;;;18.80;;
5951;SDS011;3001;42.622;23.194;2023-02-15T01:24:10;33.13;;;18.87;;
5951;SDS011;3001;42.622;23.194;2023-02-15T01:26:40;32.83;;;18.67;;
5951;SDS011;3001;42.622;23.194;2023-02-15T01:29:06;33.10;;;18.70;;
5951;SDS011;3001;42.622;23.194;2023-02-15T01:31:33;29.97;;;16.67;;
5951;SDS011;3001;42.622;23.194;2023-02-15T01:34:00;32.57;;;17.73;;
5951;SDS011;3001;42.622;23.194;2023-02-15T01:36:26;34.80;;;18.30;;
5951;SDS011;3001;42.622;23.194;2023-02-15T01:38:53;36.27;;;18.57;;
5951;SDS011;3001;42.622;23.194;2023-02-15T01:41:20;30.57;;;17.23;;
5951;SDS011;3001;42.622;23.194;2023-02-15T01:43:50;30.90;;;16.53;;
5951;SDS011;3001;42.622;23.194;2023-02-15T01:46:19;34.00;;;19.00;;
5951;SDS011;3001;42.622;23.194;2023-02-15T01:48:50;36.67;;;20.10;;
5951;SDS011;3001;42.622;23.194;2023-02-15T01:51:21;31.37;;;17.23;;
5951;SDS011;3001;42.622;23.194;2023-02-15T01:53:53;33.30;;;18.77;;
5951;SDS011;3001;42.622;23.194;2023-02-15T01:56:26;33.83;;;19.23;;
5951;SDS011;3001;42.622;23.194;2023-02-15T01:58:57;32.80;;;17.93;;
5951;SDS011;3001;42.622;23.194;2023-02-15T02:01:29;29.83;;;17.30;;
5951;SDS011;3001;42.622;23.194;2023-02-15T02:03:57;30.43;;;16.93;;
5951;SDS011;3001;42.622;23.194;2023-02-15T02:06:28;29.93;;;16.73;;
5951;SDS011;3001;42.622;23.194;2023-02-15T02:08:56;34.67;;;17.93;;
5951;SDS011;3001;42.622;23.194;2023-02-15T02:11:23;32.87;;;17.17;;
5951;SDS011;3001;42.622;23.194;2023-02-15T02:13:50;29.23;;;16.43;;
5951;SDS011;3001;42.622;23.194;2023-02-15T02:16:22;29.77;;;17.27;;
5951;SDS011;3001;42.622;23.194;2023-02-15T02:18:57;31.60;;;16.70;;
5951;SDS011;3001;42.622;23.194;2023-02-15T02:27:51;28.23;;;15.37;;
5951;SDS011;3001;42.622;23.194;2023-02-15T02:30:49;24.87;;;14.70;;
5951;SDS011;3001;42.622;23.194;2023-02-15T02:33:41;28.30;;;16.13;;
5951;SDS011;3001;42.622;23.194;2023-02-15T02:36:19;23.23;;;15.20;;
5951;SDS011;3001;42.622;23.194;2023-02-15T02:39:04;28.33;;;15.30;;
5951;SDS011;3001;42.622;23.194;2023-02-15T02:41:37;24.97;;;14.63;;
5951;SDS011;3001;42.622;23.194;2023-02-15T02:44:12;25.50;;;14.73;;
5951;SDS011;3001;42.622;23.194;2023-02-15T02:46:46;32.70;;;16.47;;
5951;SDS011;3001;42.622;23.194;2023-02-15T02:49:28;24.17;;;14.30;;
5951;SDS011;3001;42.622;23.194;2023-02-15T02:51:58;33.37;;;17.10;;
5951;SDS011;3001;42.622;23.194;2023-02-15T02:54:25;27.50;;;15.00;;
5951;SDS011;3001;42.622;23.194;2023-02-15T02:56:52;29.80;;;15.77;;
5951;SDS011;3001;42.622;23.194;2023-02-15T02:59:23;28.00;;;15.23;;
5951;SDS011;3001;42.622;23.194;2023-02-15T03:01:56;26.73;;;15.63;;
5951;SDS011;3001;42.622;23.194;2023-02-15T03:04:31;25.73;;;14.33;;
5951;SDS011;3001;42.622;23.194;2023-02-15T03:07:01;25.87;;;15.37;;
5951;SDS011;3001;42.622;23.194;2023-02-15T03:09:31;30.17;;;16.43;;
5951;SDS011;3001;42.622;23.194;2023-02-15T03:12:06;25.93;;;15.53;;
5951;SDS011;3001;42.622;23.194;2023-02-15T03:14:34;25.87;;;15.23;;
5951;SDS011;3001;42.622;23.194;2023-02-15T03:17:02;24.57;;;15.47;;
5951;SDS011;3001;42.622;23.194;2023-02-15T03:19:33;28.30;;;17.20;;
5951;SDS011;3001;42.622;23.194;2023-02-15T03:22:03;27.00;;;15.63;;
5951;SDS011;3001;42.622;23.194;2023-02-15T03:24:35;24.73;;;14.97;;
5951;SDS011;3001;42.622;23.194;2023-02-15T03:27:06;23.40;;;14.40;;
5951;SDS011;3001;42.622;23.194;2023-02-15T03:29:37;27.33;;;15.13;;
5951;SDS011;3001;42.622;23.194;2023-02-15T03:32:05;23.97;;;14.37;;
5951;SDS011;3001;42.622;23.194;2023-02-15T03:34:37;30.07;;;16.30;;
5951;SDS011;3001;42.622;23.194;2023-02-15T03:37:05;28.63;;;15.07;;
5951;SDS011;3001;42.622;23.194;2023-02-15T03:39:39;26.43;;;13.87;;
5951;SDS011;3001;42.622;23.194;2023-02-15T03:42:13;29.07;;;15.23;;
5951;SDS011;3001;42.622;23.194;2023-02-15T03:44:46;26.10;;;15.43;;
5951;SDS011;3001;42.622;23.194;2023-02-15T03:47:19;25.50;;;14.50;;
5951;SDS011;3001;42.622;23.194;2023-02-15T03:49:52;23.37;;;14.87;;
5951;SDS011;3001;42.622;23.194;2023-02-15T03:52:22;27.80;;;15.47;;
5951;SDS011;3001;42.622;23.194;2023-02-15T03:54:51;26.73;;;15.00;;
5951;SDS011;3001;42.622;23.194;2023-02-15T03:57:19;23.10;;;14.67;;
5951;SDS011;3001;42.622;23.194;2023-02-15T04:00:08;23.47;;;13.40;;
5951;SDS011;3001;42.622;23.194;2023-02-15T04:03:01;28.23;;;14.30;;
5951;SDS011;3001;42.622;23.194;2023-02-15T04:05:48;27.97;;;14.80;;
5951;SDS011;3001;42.622;23.194;2023-02-15T04:08:15;29.70;;;15.80;;
5951;SDS011;3001;42.622;23.194;2023-02-15T04:10:42;24.87;;;14.90;;
5951;SDS011;3001;42.622;23.194;2023-02-15T04:13:21;27.20;;;15.67;;
5951;SDS011;3001;42.622;23.194;2023-02-15T04:15:49;25.87;;;14.40;;
5951;SDS011;3001;42.622;23.194;2023-02-15T04:18:28;26.43;;;14.57;;
5951;SDS011;3001;42.622;23.194;2023-02-15T04:21:13;23.77;;;14.93;;
5951;SDS011;3001;42.622;23.194;2023-02-15T04:23:58;24.83;;;14.73;;
5951;SDS011;3001;42.622;23.194;2023-02-15T04:26:42;28.23;;;15.23;;
5951;SDS011;3001;42.622;23.194;2023-02-15T04:29:08;25.73;;;14.90;;
5951;SDS011;3001;42.622;23.194;2023-02-15T04:31:35;26.10;;;14.90;;
5951;SDS011;3001;42.622;23.194;2023-02-15T04:34:01;24.57;;;14.87;;
5951;SDS011;3001;42.622;23.194;2023-02-15T04:36:29;23.33;;;14.13;;
5951;SDS011;3001;42.622;23.194;2023-02-15T04:38:56;28.63;;;15.73;;
5951;SDS011;3001;42.622;23.194;2023-02-15T04:41:23;23.60;;;15.20;;
5951;SDS011;3001;42.622;23.194;2023-02-15T04:43:49;23.83;;;13.87;;
5951;SDS011;3001;42.622;23.194;2023-02-15T04:46:16;26.73;;;15.77;;
5951;SDS011;3001;42.622;23.194;2023-02-15T04:48:43;26.80;;;15.13;;
5951;SDS011;3001;42.622;23.194;2023-02-15T04:51:09;26.60;;;15.03;;
5951;SDS011;3001;42.622;23.194;2023-02-15T04:53:37;25.33;;;14.40;;
5951;SDS011;3001;42.622;23.194;2023-02-15T04:56:04;28.00;;;15.30;;
5951;SDS011;3001;42.622;23.194;2023-02-15T04:58:31;27.17;;;15.30;;
5951;SDS011;3001;42.622;23.194;2023-02-15T05:00:58;27.93;;;15.83;;
5951;SDS011;3001;42.622;23.194;2023-02-15T05:03:24;26.67;;;15.60;;
5951;SDS011;3001;42.622;23.194;2023-02-15T05:05:51;26.27;;;15.57;;
5951;SDS011;3001;42.622;23.194;2023-02-15T05:08:18;32.50;;;17.10;;
5951;SDS011;3001;42.622;23.194;2023-02-15T05:10:47;30.67;;;16.57;;
5951;SDS011;3001;42.622;23.194;2023-02-15T05:13:13;27.63;;;15.83;;
5951;SDS011;3001;42.622;23.194;2023-02-15T05:15:40;26.33;;;15.47;;
5951;SDS011;3001;42.622;23.194;2023-02-15T05:18:07;26.63;;;15.43;;
5951;SDS011;3001;42.622;23.194;2023-02-15T05:20:33;27.90;;;15.43;;
5951;SDS011;3001;42.622;23.194;2023-02-15T05:23:00;30.47;;;17.00;;
5951;SDS011;3001;42.622;23.194;2023-02-15T05:25:27;28.10;;;15.30;;
5951;SDS011;3001;42.622;23.194;2023-02-15T05:28:12;20.13;;;13.77;;
5951;SDS011;3001;42.622;23.194;2023-02-15T05:30:48;27.23;;;14.67;;
5951;SDS011;3001;42.622;23.194;2023-02-15T05:33:16;26.63;;;15.37;;
5951;SDS011;3001;42.622;23.194;2023-02-15T05:35:43;25.83;;;15.90;;
5951;SDS011;3001;42.622;23.194;2023-02-15T05:38:10;29.23;;;15.53;;
5951;SDS011;3001;42.622;23.194;2023-02-15T05:40:36;27.10;;;14.73;;
5951;SDS011;3001;42.622;23.194;2023-02-15T05:43:03;24.43;;;15.13;;
5951;SDS011;3001;42.622;23.194;2023-02-15T05:45:31;28.37;;;15.37;;
5951;SDS011;3001;42.622;23.194;2023-02-15T05:47:58;27.30;;;16.03;;
5951;SDS011;3001;42.622;23.194;2023-02-15T05:50:24;26.93;;;15.40;;
5951;SDS011;3001;42.622;23.194;2023-02-15T05:52:51;25.70;;;14.83;;
5951;SDS011;3001;42.622;23.194;2023-02-15T05:55:18;26.40;;;15.30;;
5951;SDS011;3001;42.622;23.194;2023-02-15T05:57:45;25.17;;;15.03;;
5951;SDS011;3001;42.622;23.194;2023-02-15T06:00:12;23.90;;;13.37;;
5951;SDS011;3001;42.622;23.194;2023-02-15T06:02:41;24.83;;;14.67;;
5951;SDS011;3001;42.622;23.194;2023-02-15T06:05:08;24.47;;;14.40;;
5951;SDS011;3001;42.622;23.194;2023-02-15T06:07:34;26.13;;;14.33;;
5951;SDS011;3001;42.622;23.194;2023-02-15T06:10:01;27.47;;;15.33;;
5951;SDS011;3001;42.622;23.194;2023-02-15T06:12:28;26.57;;;15.13;;
5951;SDS011;3001;42.622;23.194;2023-02-15T06:14:55;22.77;;;13.57;;
5951;SDS011;3001;42.622;23.194;2023-02-15T06:17:22;27.77;;;15.33;;
5951;SDS011;3001;42.622;23.194;2023-02-15T06:19:50;21.30;;;14.47;;
5951;SDS011;3001;42.622;23.194;2023-02-15T06:22:17;24.87;;;14.67;;
5951;SDS011;3001;42.622;23.194;2023-02-15T06:24:43;23.20;;;15.03;;
5951;SDS011;3001;42.622;23.194;2023-02-15T06:27:10;25.57;;;14.77;;
5951;SDS011;3001;42.622;23.194;2023-02-15T06:29:37;26.87;;;14.97;;
5951;SDS011;3001;42.622;23.194;2023-02-15T06:32:04;26.60;;;15.70;;
5951;SDS011;3001;42.622;23.194;2023-02-15T06:34:31;25.93;;;14.87;;
5951;SDS011;3001;42.622;23.194;2023-02-15T06:36:59;21.87;;;13.23;;
5951;SDS011;3001;42.622;23.194;2023-02-15T06:39:26;20.80;;;12.57;;
5951;SDS011;3001;42.622;23.194;2023-02-15T06:41:52;20.63;;;13.27;;
5951;SDS011;3001;42.622;23.194;2023-02-15T06:44:19;26.67;;;14.07;;
5951;SDS011;3001;42.622;23.194;2023-02-15T06:46:46;25.97;;;13.73;;
5951;SDS011;3001;42.622;23.194;2023-02-15T06:49:12;20.50;;;13.57;;
5951;SDS011;3001;42.622;23.194;2023-02-15T06:51:39;25.50;;;14.43;;
5951;SDS011;3001;42.622;23.194;2023-02-15T06:54:07;25.80;;;13.40;;
5951;SDS011;3001;42.622;23.194;2023-02-15T06:56:33;23.27;;;14.50;;
5951;SDS011;3001;42.622;23.194;2023-02-15T06:59:00;22.33;;;13.40;;
5951;SDS011;3001;42.622;23.194;2023-02-15T07:01:27;22.70;;;13.77;;
5951;SDS011;3001;42.622;23.194;2023-02-15T07:03:54;25.87;;;14.83;;
5951;SDS011;3001;42.622;23.194;2023-02-15T07:06:20;23.77;;;15.47;;
5951;SDS011;3001;42.622;23.194;2023-02-15T07:08:47;26.90;;;16.70;;
5951;SDS011;3001;42.622;23.194;2023-02-15T07:11:15;31.03;;;17.27;;
5951;SDS011;3001;42.622;23.194;2023-02-15T07:14:05;25.33;;;14.77;;
5951;SDS011;3001;42.622;23.194;2023-02-15T07:16:31;25.63;;;14.60;;
5951;SDS011;3001;42.622;23.194;2023-02-15T07:18:58;22.77;;;13.97;;
5951;SDS011;3001;42.622;23.194;2023-02-15T07:21:25;22.30;;;14.57;;
5951;SDS011;3001;42.622;23.194;2023-02-15T07:23:51;25.87;;;14.40;;
5951;SDS011;3001;42.622;23.194;2023-02-15T07:26:19;28.67;;;16.27;;
5951;SDS011;3001;42.622;23.194;2023-02-15T07:28:46;25.13;;;15.77;;
5951;SDS011;3001;42.622;23.194;2023-02-15T07:31:12;20.07;;;12.23;;
5951;SDS011;3001;42.622;23.194;2023-02-15T07:33:39;21.73;;;13.50;;
5951;SDS011;3001;42.622;23.194;2023-02-15T07:36:06;19.00;;;12.00;;
5951;SDS011;3001;42.622;23.194;2023-02-15T07:38:35;21.23;;;14.03;;
5951;SDS011;3001;42.622;23.194;2023-02-15T07:41:03;16.90;;;12.83;;
5951;SDS011;3001;42.622;23.194;2023-02-15T07:43:34;20.37;;;12.80;;
5951;SDS011;3001;42.622;23.194;2023-02-15T07:46:02;19.60;;;12.40;;
5951;SDS011;3001;42.622;23.194;2023-02-15T07:48:32;13.70;;;10.80;;
5951;SDS011;3001;42.622;23.194;2023-02-15T07:50:59;21.10;;;11.70;;
5951;SDS011;3001;42.622;23.194;2023-02-15T07:53:26;15.40;;;10.90;;
5951;SDS011;3001;42.622;23.194;2023-02-15T07:55:53;14.23;;;10.23;;
5951;SDS011;3001;42.622;23.194;2023-02-15T07:58:20;15.23;;;11.33;;
5951;SDS011;3001;42.622;23.194;2023-02-15T08:01:08;16.30;;;10.77;;
5951;SDS011;3001;42.622;23.194;2023-02-15T08:03:35;16.03;;;10.57;;
5951;SDS011;3001;42.622;23.194;2023-02-15T08:06:02;15.10;;;11.07;;
5951;SDS011;3001;42.622;23.194;2023-02-15T08:08:29;18.43;;;11.83;;
5951;SDS011;3001;42.622;23.194;2023-02-15T08:10:59;36.80;;;20.47;;
5951;SDS011;3001;42.622;23.194;2023-02-15T08:13:44;35.93;;;19.13;;
5951;SDS011;3001;42.622;23.194;2023-02-15T08:16:20;21.97;;;14.43;;
5951;SDS011;3001;42.622;23.194;2023-02-15T08:18:48;24.63;;;13.73;;
5951;SDS011;3001;42.622;23.194;2023-02-15T08:21:15;21.23;;;13.53;;
5951;SDS011;3001;42.622;23.194;2023-02-15T08:23:41;19.17;;;12.17;;
5951;SDS011;3001;42.622;23.194;2023-02-15T08:26:08;20.90;;;13.27;;
5951;SDS011;3001;42.622;23.194;2023-02-15T08:28:35;16.67;;;12.60;;
5951;SDS011;3001;42.622;23.194;2023-02-15T08:31:05;19.27;;;12.10;;
5951;SDS011;3001;42.622;23.194;2023-02-15T08:33:34;18.53;;;12.77;;
5951;SDS011;3001;42.622;23.194;2023-02-15T08:36:02;21.33;;;13.47;;
5951;SDS011;3001;42.622;23.194;2023-02-15T08:38:29;17.23;;;12.53;;
5951;SDS011;3001;42.622;23.194;2023-02-15T08:40:57;17.23;;;13.37;;
5951;SDS011;3001;42.622;23.194;2023-02-15T08:43:23;21.97;;;12.67;;
5951;SDS011;3001;42.622;23.194;2023-02-15T08:45:50;17.10;;;12.57;;
5951;SDS011;3001;42.622;23.194;2023-02-15T08:48:16;17.77;;;13.17;;
5951;SDS011;3001;42.622;23.194;2023-02-15T08:50:44;18.97;;;12.87;;
5951;SDS011;3001;42.622;23.194;2023-02-15T08:53:11;23.30;;;14.20;;
5951;SDS011;3001;42.622;23.194;2023-02-15T08:55:38;21.57;;;12.53;;
5951;SDS011;3001;42.622;23.194;2023-02-15T08:58:05;20.30;;;12.77;;
5951;SDS011;3001;42.622;23.194;2023-02-15T09:00:32;17.17;;;12.83;;
5951;SDS011;3001;42.622;23.194;2023-02-15T09:02:59;18.47;;;13.03;;
5951;SDS011;3001;42.622;23.194;2023-02-15T09:05:25;17.27;;;12.03;;
5951;SDS011;3001;42.622;23.194;2023-02-15T09:07:53;18.43;;;13.70;;
5951;SDS011;3001;42.622;23.194;2023-02-15T09:10:20;18.40;;;11.93;;
5951;SDS011;3001;42.622;23.194;2023-02-15T09:12:47;16.77;;;12.23;;
5951;SDS011;3001;42.622;23.194;2023-02-15T09:15:15;16.60;;;12.00;;
5951;SDS011;3001;42.622;23.194;2023-02-15T09:17:41;16.03;;;12.20;;
5951;SDS011;3001;42.622;23.194;2023-02-15T09:20:08;22.77;;;13.77;;
5951;SDS011;3001;42.622;23.194;2023-02-15T09:22:35;14.93;;;11.67;;
5951;SDS011;3001;42.622;23.194;2023-02-15T09:25:04;18.13;;;12.37;;
5951;SDS011;3001;42.622;23.194;2023-02-15T09:27:30;16.40;;;12.57;;
5951;SDS011;3001;42.622;23.194;2023-02-15T09:29:57;15.47;;;11.30;;
5951;SDS011;3001;42.622;23.194;2023-02-15T09:32:24;17.73;;;12.43;;
5951;SDS011;3001;42.622;23.194;2023-02-15T09:34:51;15.90;;;12.40;;
5951;SDS011;3001;42.622;23.194;2023-02-15T09:37:17;16.57;;;11.77;;
5951;SDS011;3001;42.622;23.194;2023-02-15T09:39:44;18.57;;;12.73;;
5951;SDS011;3001;42.622;23.194;2023-02-15T09:42:18;20.37;;;14.17;;
5951;SDS011;3001;42.622;23.194;2023-02-15T09:45:03;22.60;;;15.53;;
5951;SDS011;3001;42.622;23.194;2023-02-15T09:50:44;20.03;;;14.60;;
5951;SDS011;3001;42.622;23.194;2023-02-15T09:53:35;24.53;;;15.93;;
5951;SDS011;3001;42.622;23.194;2023-02-15T09:56:14;24.10;;;17.90;;
5951;SDS011;3001;42.622;23.194;2023-02-15T09:58:53;23.20;;;16.40;;
5951;SDS011;3001;42.622;23.194;2023-02-15T10:01:30;20.27;;;14.33;;
5951;SDS011;3001;42.622;23.194;2023-02-15T10:04:09;19.80;;;13.20;;
5951;SDS011;3001;42.622;23.194;2023-02-15T10:06:47;17.03;;;13.30;;
5951;SDS011;3001;42.622;23.194;2023-02-15T10:12:28;17.20;;;12.87;;
5951;SDS011;3001;42.622;23.194;2023-02-15T10:15:22;18.97;;;14.43;;
5951;SDS011;3001;42.622;23.194;2023-02-15T10:18:02;17.87;;;13.50;;
5951;SDS011;3001;42.622;23.194;2023-02-15T10:20:39;17.97;;;12.90;;
5951;SDS011;3001;42.622;23.194;2023-02-15T10:23:22;21.00;;;12.97;;
5951;SDS011;3001;42.622;23.194;2023-02-15T10:26:08;23.47;;;14.20;;
5951;SDS011;3001;42.622;23.194;2023-02-15T10:28:42;19.10;;;14.60;;
5951;SDS011;3001;42.622;23.194;2023-02-15T10:31:17;21.70;;;13.67;;
5951;SDS011;3001;42.622;23.194;2023-02-15T10:33:53;19.70;;;13.90;;
5951;SDS011;3001;42.622;23.194;2023-02-15T10:36:32;19.50;;;14.20;;
5951;SDS011;3001;42.622;23.194;2023-02-15T10:39:12;16.67;;;13.43;;
5951;SDS011;3001;42.622;23.194;2023-02-15T10:41:50;34.77;;;24.67;;
5951;SDS011;3001;42.622;23.194;2023-02-15T10:44:37;25.80;;;18.93;;
5951;SDS011;3001;42.622;23.194;2023-02-15T10:47:22;17.93;;;14.40;;
5951;SDS011;3001;42.622;23.194;2023-02-15T10:50:06;19.47;;;14.17;;
5951;SDS011;3001;42.622;23.194;2023-02-15T10:52:54;18.17;;;14.17;;
5951;SDS011;3001;42.622;23.194;2023-02-15T10:55:35;19.70;;;15.27;;
5951;SDS011;3001;42.622;23.194;2023-02-15T10:58:15;22.47;;;15.70;;
5951;SDS011;3001;42.622;23.194;2023-02-15T11:00:51;16.67;;;13.23;;
5951;SDS011;3001;42.622;23.194;2023-02-15T11:03:31;18.57;;;14.17;;
5951;SDS011;3001;42.622;23.194;2023-02-15T11:06:08;21.87;;;15.87;;
5951;SDS011;3001;42.622;23.194;2023-02-15T11:08:39;24.07;;;18.07;;
5951;SDS011;3001;42.622;23.194;2023-02-15T11:11:10;20.77;;;16.57;;
5951;SDS011;3001;42.622;23.194;2023-02-15T11:13:43;18.33;;;15.10;;
5951;SDS011;3001;42.622;23.194;2023-02-15T11:16:15;17.43;;;14.73;;
5951;SDS011;3001;42.622;23.194;2023-02-15T11:18:50;19.33;;;16.40;;
5951;SDS011;3001;42.622;23.194;2023-02-15T11:21:21;22.80;;;19.10;;
5951;SDS011;3001;42.622;23.194;2023-02-15T11:23:50;21.87;;;17.70;;
5951;SDS011;3001;42.622;23.194;2023-02-15T11:26:19;17.53;;;14.93;;
5951;SDS011;3001;42.622;23.194;2023-02-15T11:28:54;11.67;;;10.57;;
5951;SDS011;3001;42.622;23.194;2023-02-15T11:31:26;12.77;;;11.50;;
5951;SDS011;3001;42.622;23.194;2023-02-15T11:34:10;13.27;;;11.93;;
5951;SDS011;3001;42.622;23.194;2023-02-15T11:36:43;15.70;;;12.93;;
5951;SDS011;3001;42.622;23.194;2023-02-15T11:39:14;14.43;;;12.37;;
5951;SDS011;3001;42.622;23.194;2023-02-15T11:41:44;14.77;;;13.20;;
5951;SDS011;3001;42.622;23.194;2023-02-15T11:44:17;14.23;;;12.73;;
5951;SDS011;3001;42.622;23.194;2023-02-15T11:46:48;13.20;;;11.23;;
5951;SDS011;3001;42.622;23.194;2023-02-15T11:49:19;13.30;;;11.93;;
5951;SDS011;3001;42.622;23.194;2023-02-15T11:51:49;13.50;;;12.13;;
5951;SDS011;3001;42.622;23.194;2023-02-15T11:54:17;12.10;;;10.90;;
5951;SDS011;3001;42.622;23.194;2023-02-15T11:56:46;13.67;;;11.67;;
5951;SDS011;3001;42.622;23.194;2023-02-15T11:59:14;12.93;;;11.37;;
5951;SDS011;3001;42.622;23.194;2023-02-15T12:01:47;13.43;;;11.80;;
5951;SDS011;3001;42.622;23.194;2023-02-15T12:04:16;16.73;;;12.87;;
5951;SDS011;3001;42.622;23.194;2023-02-15T12:06:49;17.97;;;13.80;;
5951;SDS011;3001;42.622;23.194;2023-02-15T12:09:25;14.90;;;13.30;;
5951;SDS011;3001;42.622;23.194;2023-02-15T12:12:07;14.67;;;12.83;;
5951;SDS011;3001;42.622;23.194;2023-02-15T12:14:47;14.10;;;12.30;;
5951;SDS011;3001;42.622;23.194;2023-02-15T12:17:15;17.63;;;13.50;;
5951;SDS011;3001;42.622;23.194;2023-02-15T12:19:44;35.37;;;20.93;;
5951;SDS011;3001;42.622;23.194;2023-02-15T12:22:18;18.63;;;14.50;;
5951;SDS011;3001;42.622;23.194;2023-02-15T12:24:49;15.37;;;12.57;;
5951;SDS011;3001;42.622;23.194;2023-02-15T12:27:18;13.60;;;12.23;;
5951;SDS011;3001;42.622;23.194;2023-02-15T12:29:47;14.87;;;13.23;;
5951;SDS011;3001;42.622;23.194;2023-02-15T12:32:17;30.73;;;20.50;;
5951;SDS011;3001;42.622;23.194;2023-02-15T12:34:47;20.30;;;15.60;;
5951;SDS011;3001;42.622;23.194;2023-02-15T12:37:16;14.67;;;13.13;;
5951;SDS011;3001;42.622;23.194;2023-02-15T12:39:52;18.00;;;14.17;;
5951;SDS011;3001;42.622;23.194;2023-02-15T12:42:20;20.63;;;17.03;;
5951;SDS011;3001;42.622;23.194;2023-02-15T12:44:59;18.93;;;15.13;;
5951;SDS011;3001;42.622;23.194;2023-02-15T12:47:27;15.07;;;13.47;;
5951;SDS011;3001;42.622;23.194;2023-02-15T12:50:11;16.73;;;14.60;;
5951;SDS011;3001;42.622;23.194;2023-02-15T12:52:46;17.53;;;14.50;;
5951;SDS011;3001;42.622;23.194;2023-02-15T12:55:23;20.80;;;16.20;;
5951;SDS011;3001;42.622;23.194;2023-02-15T12:58:05;17.67;;;15.50;;
5951;SDS011;3001;42.622;23.194;2023-02-15T13:00:32;20.03;;;16.07;;
5951;SDS011;3001;42.622;23.194;2023-02-15T13:03:00;17.37;;;14.23;;
5951;SDS011;3001;42.622;23.194;2023-02-15T13:05:30;16.00;;;14.10;;
5951;SDS011;3001;42.622;23.194;2023-02-15T13:08:00;16.50;;;14.20;;
5951;SDS011;3001;42.622;23.194;2023-02-15T13:10:29;15.60;;;13.60;;
5951;SDS011;3001;42.622;23.194;2023-02-15T13:12:59;16.50;;;14.10;;
5951;SDS011;3001;42.622;23.194;2023-02-15T13:15:32;18.50;;;14.83;;
5951;SDS011;3001;42.622;23.194;2023-02-15T13:18:02;19.80;;;16.13;;
5951;SDS011;3001;42.622;23.194;2023-02-15T13:20:32;26.87;;;20.10;;
5951;SDS011;3001;42.622;23.194;2023-02-15T13:23:06;48.83;;;28.17;;
5951;SDS011;3001;42.622;23.194;2023-02-15T13:25:46;41.67;;;27.60;;
5951;SDS011;3001;42.622;23.194;2023-02-15T13:28:16;56.63;;;37.07;;
5951;SDS011;3001;42.622;23.194;2023-02-15T13:30:47;36.20;;;26.17;;
5951;SDS011;3001;42.622;23.194;2023-02-15T13:33:16;32.47;;;22.67;;
5951;SDS011;3001;42.622;23.194;2023-02-15T13:35:54;27.83;;;20.60;;
5951;SDS011;3001;42.622;23.194;2023-02-15T13:38:37;28.10;;;19.53;;
5951;SDS011;3001;42.622;23.194;2023-02-15T13:41:14;25.23;;;19.20;;
5951;SDS011;3001;42.622;23.194;2023-02-15T13:43:45;23.17;;;18.40;;
5951;SDS011;3001;42.622;23.194;2023-02-15T13:46:24;21.50;;;17.33;;
5951;SDS011;3001;42.622;23.194;2023-02-15T13:49:11;20.83;;;17.43;;
5951;SDS011;3001;42.622;23.194;2023-02-15T13:51:49;23.83;;;17.63;;
5951;SDS011;3001;42.622;23.194;2023-02-15T13:54:36;23.13;;;18.17;;
5951;SDS011;3001;42.622;23.194;2023-02-15T13:57:25;21.80;;;17.23;;
5951;SDS011;3001;42.622;23.194;2023-02-15T14:00:13;22.73;;;18.20;;
5951;SDS011;3001;42.622;23.194;2023-02-15T14:03:00;21.93;;;17.53;;
5951;SDS011;3001;42.622;23.194;2023-02-15T14:05:57;22.13;;;17.20;;
5951;SDS011;3001;42.622;23.194;2023-02-15T14:08:41;23.83;;;18.93;;
5951;SDS011;3001;42.622;23.194;2023-02-15T14:11:20;22.07;;;17.43;;
5951;SDS011;3001;42.622;23.194;2023-02-15T14:13:58;24.10;;;17.43;;
5951;SDS011;3001;42.622;23.194;2023-02-15T14:16:39;23.07;;;17.30;;
5951;SDS011;3001;42.622;23.194;2023-02-15T14:19:14;22.30;;;17.23;;
5951;SDS011;3001;42.622;23.194;2023-02-15T14:21:46;25.90;;;18.63;;
5951;SDS011;3001;42.622;23.194;2023-02-15T14:24:21;26.30;;;18.97;;
5951;SDS011;3001;42.622;23.194;2023-02-15T14:26:56;27.47;;;19.13;;
5951;SDS011;3001;42.622;23.194;2023-02-15T14:29:36;25.13;;;19.10;;
5951;SDS011;3001;42.622;23.194;2023-02-15T14:32:12;24.40;;;19.17;;
5951;SDS011;3001;42.622;23.194;2023-02-15T14:34:44;26.50;;;18.47;;
5951;SDS011;3001;42.622;23.194;2023-02-15T14:37:16;24.80;;;18.27;;
5951;SDS011;3001;42.622;23.194;2023-02-15T14:39:52;25.33;;;17.60;;
5951;SDS011;3001;42.622;23.194;2023-02-15T14:42:45;27.67;;;19.33;;
5951;SDS011;3001;42.622;23.194;2023-02-15T14:45:21;26.77;;;19.23;;
5951;SDS011;3001;42.622;23.194;2023-02-15T14:47:52;23.50;;;17.47;;
5951;SDS011;3001;42.622;23.194;2023-02-15T14:50:42;24.70;;;18.50;;
5951;SDS011;3001;42.622;23.194;2023-02-15T14:53:22;25.10;;;17.90;;
5951;SDS011;3001;42.622;23.194;2023-02-15T14:59:00;26.87;;;18.87;;
5951;SDS011;3001;42.622;23.194;2023-02-15T15:01:41;26.00;;;19.23;;
5951;SDS011;3001;42.622;23.194;2023-02-15T15:04:21;25.73;;;19.03;;
5951;SDS011;3001;42.622;23.194;2023-02-15T15:06:57;29.83;;;19.43;;
5951;SDS011;3001;42.622;23.194;2023-02-15T15:09:28;27.50;;;19.37;;
5951;SDS011;3001;42.622;23.194;2023-02-15T15:12:12;26.70;;;19.07;;
5951;SDS011;3001;42.622;23.194;2023-02-15T15:14:40;27.97;;;18.60;;